sensor_id;sensor_type;location;lat;lon;timestamp;P1;durP1;ratioP1;P2;durP2;ratioP2
60318;SDS011;46163;52.306;5.634;2023-02-24T00:01:11;2.60;;;1.40;;
60318;SDS011;46163;52.306;5.634;2023-02-24T00:03:39;1.45;;;1.35;;
60318;SDS011;46163;52.306;5.634;2023-02-24T00:06:11;2.42;;;1.50;;
60318;SDS011;46163;52.306;5.634;2023-02-24T00:08:40;2.05;;;1.50;;
60318;SDS011;46163;52.306;5.634;2023-02-24T00:11:07;2.60;;;1.40;;
60318;SDS011;46163;52.306;5.634;2023-02-24T00:13:38;1.88;;;1.58;;
60318;SDS011;46163;52.306;5.634;2023-02-24T00:16:04;1.55;;;1.42;;
60318;SDS011;46163;52.306;5.634;2023-02-24T00:18:31;1.77;;;1.42;;
60318;SDS011;46163;52.306;5.634;2023-02-24T00:21:04;1.45;;;1.23;;
60318;SDS011;46163;52.306;5.634;2023-02-24T00:23:33;2.00;;;1.60;;
60318;SDS011;46163;52.306;5.634;2023-02-24T00:28:27;4.32;;;1.50;;
60318;SDS011;46163;52.306;5.634;2023-02-24T00:30:53;2.00;;;1.52;;
60318;SDS011;46163;52.306;5.634;2023-02-24T00:33:20;1.52;;;1.42;;
60318;SDS011;46163;52.306;5.634;2023-02-24T00:35:48;1.75;;;1.52;;
60318;SDS011;46163;52.306;5.634;2023-02-24T00:38:14;1.48;;;1.30;;
60318;SDS011;46163;52.306;5.634;2023-02-24T00:40:40;1.40;;;1.30;;
60318;SDS011;46163;52.306;5.634;2023-02-24T00:43:09;3.95;;;1.60;;
60318;SDS011;46163;52.306;5.634;2023-02-24T00:45:38;1.30;;;1.20;;
60318;SDS011;46163;52.306;5.634;2023-02-24T00:48:04;1.50;;;1.40;;
60318;SDS011;46163;52.306;5.634;2023-02-24T00:50:34;2.17;;;1.50;;
60318;SDS011;46163;52.306;5.634;2023-02-24T00:53:03;1.65;;;1.30;;
60318;SDS011;46163;52.306;5.634;2023-02-24T00:55:29;1.48;;;1.38;;
60318;SDS011;46163;52.306;5.634;2023-02-24T00:58:00;1.52;;;1.38;;
60318;SDS011;46163;52.306;5.634;2023-02-24T01:00:27;1.40;;;1.30;;
60318;SDS011;46163;52.306;5.634;2023-02-24T01:02:52;1.40;;;1.30;;
60318;SDS011;46163;52.306;5.634;2023-02-24T01:05:18;2.78;;;1.50;;
60318;SDS011;46163;52.306;5.634;2023-02-24T01:07:44;1.60;;;1.42;;
60318;SDS011;46163;52.306;5.634;2023-02-24T01:10:10;1.77;;;1.30;;
60318;SDS011;46163;52.306;5.634;2023-02-24T01:12:36;1.33;;;1.23;;
60318;SDS011;46163;52.306;5.634;2023-02-24T01:17:41;1.38;;;1.27;;
60318;SDS011;46163;52.306;5.634;2023-02-24T01:20:07;1.60;;;1.50;;
60318;SDS011;46163;52.306;5.634;2023-02-24T01:22:47;1.55;;;1.40;;
60318;SDS011;46163;52.306;5.634;2023-02-24T01:25:14;1.42;;;1.33;;
60318;SDS011;46163;52.306;5.634;2023-02-24T01:27:40;2.28;;;1.55;;
60318;SDS011;46163;52.306;5.634;2023-02-24T01:30:09;3.13;;;1.20;;
60318;SDS011;46163;52.306;5.634;2023-02-24T01:32:40;1.75;;;1.30;;
60318;SDS011;46163;52.306;5.634;2023-02-24T01:35:07;1.20;;;1.10;;
60318;SDS011;46163;52.306;5.634;2023-02-24T01:37:33;2.40;;;1.45;;
60318;SDS011;46163;52.306;5.634;2023-02-24T01:39:58;1.92;;;1.40;;
60318;SDS011;46163;52.306;5.634;2023-02-24T01:42:28;1.50;;;1.40;;
60318;SDS011;46163;52.306;5.634;2023-02-24T01:45:10;1.40;;;1.30;;
60318;SDS011;46163;52.306;5.634;2023-02-24T01:47:38;1.40;;;1.30;;
60318;SDS011;46163;52.306;5.634;2023-02-24T01:50:07;2.42;;;1.20;;
60318;SDS011;46163;52.306;5.634;2023-02-24T01:52:37;2.13;;;1.40;;
60318;SDS011;46163;52.306;5.634;2023-02-24T01:57:59;2.63;;;1.48;;
60318;SDS011;46163;52.306;5.634;2023-02-24T02:00:29;1.35;;;1.25;;
60318;SDS011;46163;52.306;5.634;2023-02-24T02:03:23;1.60;;;1.27;;
60318;SDS011;46163;52.306;5.634;2023-02-24T02:05:49;1.25;;;1.25;;
60318;SDS011;46163;52.306;5.634;2023-02-24T02:08:16;1.47;;;1.37;;
60318;SDS011;46163;52.306;5.634;2023-02-24T02:10:44;1.52;;;1.42;;
60318;SDS011;46163;52.306;5.634;2023-02-24T02:13:11;1.48;;;1.27;;
60318;SDS011;46163;52.306;5.634;2023-02-24T02:15:57;1.77;;;1.40;;
60318;SDS011;46163;52.306;5.634;2023-02-24T02:23:46;1.50;;;1.40;;
60318;SDS011;46163;52.306;5.634;2023-02-24T02:31:58;1.27;;;1.20;;
60318;SDS011;46163;52.306;5.634;2023-02-24T02:39:55;1.48;;;1.30;;
60318;SDS011;46163;52.306;5.634;2023-02-24T02:44:55;1.48;;;1.23;;
60318;SDS011;46163;52.306;5.634;2023-02-24T02:47:31;1.40;;;1.30;;
60318;SDS011;46163;52.306;5.634;2023-02-24T02:52:36;1.73;;;1.10;;
60318;SDS011;46163;52.306;5.634;2023-02-24T02:55:09;1.40;;;1.30;;
60318;SDS011;46163;52.306;5.634;2023-02-24T02:57:40;1.30;;;1.20;;
60318;SDS011;46163;52.306;5.634;2023-02-24T03:00:13;1.60;;;1.40;;
60318;SDS011;46163;52.306;5.634;2023-02-24T03:02:46;2.08;;;1.20;;
60318;SDS011;46163;52.306;5.634;2023-02-24T03:05:16;1.65;;;1.38;;
60318;SDS011;46163;52.306;5.634;2023-02-24T03:07:50;1.42;;;1.33;;
60318;SDS011;46163;52.306;5.634;2023-02-24T03:10:23;1.67;;;1.33;;
60318;SDS011;46163;52.306;5.634;2023-02-24T03:12:52;1.42;;;1.33;;
60318;SDS011;46163;52.306;5.634;2023-02-24T03:15:21;1.30;;;1.20;;
60318;SDS011;46163;52.306;5.634;2023-02-24T03:17:51;1.13;;;1.13;;
60318;SDS011;46163;52.306;5.634;2023-02-24T03:20:25;1.92;;;1.40;;
60318;SDS011;46163;52.306;5.634;2023-02-24T03:23:01;1.58;;;1.33;;
60318;SDS011;46163;52.306;5.634;2023-02-24T03:25:35;1.17;;;1.08;;
60318;SDS011;46163;52.306;5.634;2023-02-24T03:31:09;1.13;;;1.02;;
60318;SDS011;46163;52.306;5.634;2023-02-24T03:33:51;1.10;;;1.10;;
60318;SDS011;46163;52.306;5.634;2023-02-24T03:36:21;1.17;;;1.10;;
60318;SDS011;46163;52.306;5.634;2023-02-24T03:38:47;0.90;;;0.90;;
60318;SDS011;46163;52.306;5.634;2023-02-24T03:41:14;1.42;;;1.30;;
60318;SDS011;46163;52.306;5.634;2023-02-24T03:43:42;0.90;;;0.90;;
60318;SDS011;46163;52.306;5.634;2023-02-24T03:46:11;1.17;;;1.08;;
60318;SDS011;46163;52.306;5.634;2023-02-24T03:48:41;1.75;;;1.30;;
60318;SDS011;46163;52.306;5.634;2023-02-24T03:51:15;1.20;;;1.10;;
60318;SDS011;46163;52.306;5.634;2023-02-24T03:56:50;1.00;;;1.00;;
60318;SDS011;46163;52.306;5.634;2023-02-24T04:02:06;1.15;;;1.10;;
60318;SDS011;46163;52.306;5.634;2023-02-24T04:04:44;1.00;;;1.00;;
60318;SDS011;46163;52.306;5.634;2023-02-24T04:10:20;1.08;;;1.00;;
60318;SDS011;46163;52.306;5.634;2023-02-24T04:13:18;1.35;;;1.25;;
60318;SDS011;46163;52.306;5.634;2023-02-24T04:15:59;1.20;;;1.10;;
60318;SDS011;46163;52.306;5.634;2023-02-24T04:18:32;2.17;;;1.10;;
60318;SDS011;46163;52.306;5.634;2023-02-24T04:24:01;1.35;;;0.90;;
60318;SDS011;46163;52.306;5.634;2023-02-24T04:26:19;0.90;;;0.90;;
60318;SDS011;46163;52.306;5.634;2023-02-24T04:28:49;0.95;;;0.95;;
60318;SDS011;46163;52.306;5.634;2023-02-24T04:31:16;0.90;;;0.90;;
60318;SDS011;46163;52.306;5.634;2023-02-24T04:33:45;0.82;;;0.82;;
60318;SDS011;46163;52.306;5.634;2023-02-24T04:36:18;0.80;;;0.80;;
60318;SDS011;46163;52.306;5.634;2023-02-24T04:38:44;0.80;;;0.80;;
60318;SDS011;46163;52.306;5.634;2023-02-24T04:41:10;1.05;;;0.90;;
60318;SDS011;46163;52.306;5.634;2023-02-24T04:43:38;1.08;;;1.00;;
60318;SDS011;46163;52.306;5.634;2023-02-24T04:46:04;0.80;;;0.80;;
60318;SDS011;46163;52.306;5.634;2023-02-24T04:48:35;0.70;;;0.70;;
60318;SDS011;46163;52.306;5.634;2023-02-24T04:51:03;0.88;;;0.88;;
60318;SDS011;46163;52.306;5.634;2023-02-24T04:53:30;0.90;;;0.90;;
60318;SDS011;46163;52.306;5.634;2023-02-24T04:55:56;0.70;;;0.70;;
60318;SDS011;46163;52.306;5.634;2023-02-24T04:58:32;0.73;;;0.73;;
60318;SDS011;46163;52.306;5.634;2023-02-24T05:00:57;1.58;;;1.08;;
60318;SDS011;46163;52.306;5.634;2023-02-24T05:03:24;0.80;;;0.80;;
60318;SDS011;46163;52.306;5.634;2023-02-24T05:05:57;0.80;;;0.80;;
60318;SDS011;46163;52.306;5.634;2023-02-24T05:08:27;0.65;;;0.65;;
60318;SDS011;46163;52.306;5.634;2023-02-24T05:10:54;0.60;;;0.60;;
60318;SDS011;46163;52.306;5.634;2023-02-24T05:13:25;0.80;;;0.70;;
60318;SDS011;46163;52.306;5.634;2023-02-24T05:15:53;0.60;;;0.60;;
60318;SDS011;46163;52.306;5.634;2023-02-24T05:18:20;0.50;;;0.50;;
60318;SDS011;46163;52.306;5.634;2023-02-24T05:20:49;0.50;;;0.50;;
60318;SDS011;46163;52.306;5.634;2023-02-24T05:23:52;0.70;;;0.70;;
60318;SDS011;46163;52.306;5.634;2023-02-24T05:26:19;0.60;;;0.60;;
60318;SDS011;46163;52.306;5.634;2023-02-24T05:28:48;1.25;;;0.75;;
60318;SDS011;46163;52.306;5.634;2023-02-24T05:33:44;0.80;;;0.80;;
60318;SDS011;46163;52.306;5.634;2023-02-24T05:36:11;1.00;;;0.80;;
60318;SDS011;46163;52.306;5.634;2023-02-24T05:38:41;0.60;;;0.60;;
60318;SDS011;46163;52.306;5.634;2023-02-24T05:41:12;0.70;;;0.70;;
60318;SDS011;46163;52.306;5.634;2023-02-24T05:43:45;0.63;;;0.63;;
60318;SDS011;46163;52.306;5.634;2023-02-24T05:46:20;1.35;;;0.95;;
60318;SDS011;46163;52.306;5.634;2023-02-24T05:48:52;0.70;;;0.70;;
60318;SDS011;46163;52.306;5.634;2023-02-24T05:51:21;0.73;;;0.60;;
60318;SDS011;46163;52.306;5.634;2023-02-24T05:53:51;0.63;;;0.60;;
60318;SDS011;46163;52.306;5.634;2023-02-24T05:56:20;0.52;;;0.52;;
60318;SDS011;46163;52.306;5.634;2023-02-24T05:58:47;0.55;;;0.55;;
60318;SDS011;46163;52.306;5.634;2023-02-24T06:01:14;0.60;;;0.60;;
60318;SDS011;46163;52.306;5.634;2023-02-24T06:03:43;0.60;;;0.60;;
60318;SDS011;46163;52.306;5.634;2023-02-24T06:06:12;0.60;;;0.60;;
60318;SDS011;46163;52.306;5.634;2023-02-24T06:08:41;0.50;;;0.50;;
60318;SDS011;46163;52.306;5.634;2023-02-24T06:11:14;0.77;;;0.77;;
60318;SDS011;46163;52.306;5.634;2023-02-24T06:13:44;0.77;;;0.77;;
60318;SDS011;46163;52.306;5.634;2023-02-24T06:16:14;0.88;;;0.75;;
60318;SDS011;46163;52.306;5.634;2023-02-24T06:18:41;0.60;;;0.60;;
60318;SDS011;46163;52.306;5.634;2023-02-24T06:21:07;0.55;;;0.55;;
60318;SDS011;46163;52.306;5.634;2023-02-24T06:23:33;0.90;;;0.90;;
60318;SDS011;46163;52.306;5.634;2023-02-24T06:26:02;0.47;;;0.47;;
60318;SDS011;46163;52.306;5.634;2023-02-24T06:28:28;1.42;;;0.80;;
60318;SDS011;46163;52.306;5.634;2023-02-24T06:30:55;0.70;;;0.70;;
60318;SDS011;46163;52.306;5.634;2023-02-24T06:33:20;0.50;;;0.50;;
60318;SDS011;46163;52.306;5.634;2023-02-24T06:35:47;0.80;;;0.80;;
60318;SDS011;46163;52.306;5.634;2023-02-24T06:38:12;0.77;;;0.77;;
60318;SDS011;46163;52.306;5.634;2023-02-24T06:40:39;0.65;;;0.63;;
60318;SDS011;46163;52.306;5.634;2023-02-24T06:43:07;1.20;;;0.70;;
60318;SDS011;46163;52.306;5.634;2023-02-24T06:45:34;0.60;;;0.60;;
60318;SDS011;46163;52.306;5.634;2023-02-24T06:47:59;1.83;;;0.82;;
60318;SDS011;46163;52.306;5.634;2023-02-24T06:50:25;0.57;;;0.57;;
60318;SDS011;46163;52.306;5.634;2023-02-24T06:52:53;0.60;;;0.60;;
60318;SDS011;46163;52.306;5.634;2023-02-24T06:55:25;1.50;;;0.93;;
60318;SDS011;46163;52.306;5.634;2023-02-24T06:57:56;1.58;;;0.60;;
60318;SDS011;46163;52.306;5.634;2023-02-24T07:00:27;0.70;;;0.70;;
60318;SDS011;46163;52.306;5.634;2023-02-24T07:03:24;0.85;;;0.82;;
60318;SDS011;46163;52.306;5.634;2023-02-24T07:06:03;1.85;;;0.75;;
60318;SDS011;46163;52.306;5.634;2023-02-24T07:08:48;0.90;;;0.90;;
60318;SDS011;46163;52.306;5.634;2023-02-24T07:11:16;0.45;;;0.45;;
60318;SDS011;46163;52.306;5.634;2023-02-24T07:13:43;0.60;;;0.60;;
60318;SDS011;46163;52.306;5.634;2023-02-24T07:16:11;0.70;;;0.70;;
60318;SDS011;46163;52.306;5.634;2023-02-24T07:18:39;0.70;;;0.70;;
60318;SDS011;46163;52.306;5.634;2023-02-24T07:21:07;1.13;;;0.88;;
60318;SDS011;46163;52.306;5.634;2023-02-24T07:23:36;0.60;;;0.60;;
60318;SDS011;46163;52.306;5.634;2023-02-24T07:26:09;0.85;;;0.80;;
60318;SDS011;46163;52.306;5.634;2023-02-24T07:28:37;1.13;;;0.98;;
60318;SDS011;46163;52.306;5.634;2023-02-24T07:31:08;1.10;;;0.90;;
60318;SDS011;46163;52.306;5.634;2023-02-24T07:33:36;2.30;;;1.15;;
60318;SDS011;46163;52.306;5.634;2023-02-24T07:36:06;1.77;;;1.00;;
60318;SDS011;46163;52.306;5.634;2023-02-24T07:38:38;1.00;;;0.88;;
60318;SDS011;46163;52.306;5.634;2023-02-24T07:41:04;2.45;;;1.00;;
60318;SDS011;46163;52.306;5.634;2023-02-24T07:43:35;2.33;;;1.10;;
60318;SDS011;46163;52.306;5.634;2023-02-24T07:46:05;1.00;;;0.80;;
60318;SDS011;46163;52.306;5.634;2023-02-24T07:48:32;1.08;;;0.98;;
60318;SDS011;46163;52.306;5.634;2023-02-24T07:50:59;1.17;;;1.08;;
60318;SDS011;46163;52.306;5.634;2023-02-24T07:53:24;0.93;;;0.82;;
60318;SDS011;46163;52.306;5.634;2023-02-24T07:55:52;0.90;;;0.90;;
60318;SDS011;46163;52.306;5.634;2023-02-24T07:58:18;1.20;;;1.00;;
60318;SDS011;46163;52.306;5.634;2023-02-24T08:00:45;0.80;;;0.80;;
60318;SDS011;46163;52.306;5.634;2023-02-24T08:03:32;1.27;;;0.80;;
60318;SDS011;46163;52.306;5.634;2023-02-24T08:06:05;1.75;;;0.98;;
60318;SDS011;46163;52.306;5.634;2023-02-24T08:08:42;1.13;;;0.90;;
60318;SDS011;46163;52.306;5.634;2023-02-24T08:11:35;2.83;;;0.90;;
60318;SDS011;46163;52.306;5.634;2023-02-24T08:14:01;0.55;;;0.55;;
60318;SDS011;46163;52.306;5.634;2023-02-24T08:16:29;0.75;;;0.75;;
60318;SDS011;46163;52.306;5.634;2023-02-24T08:19:04;1.08;;;0.95;;
60318;SDS011;46163;52.306;5.634;2023-02-24T08:21:37;1.42;;;0.88;;
60318;SDS011;46163;52.306;5.634;2023-02-24T08:24:12;1.70;;;0.90;;
60318;SDS011;46163;52.306;5.634;2023-02-24T08:26:48;0.65;;;0.65;;
60318;SDS011;46163;52.306;5.634;2023-02-24T08:29:34;1.05;;;0.70;;
60318;SDS011;46163;52.306;5.634;2023-02-24T08:32:07;0.80;;;0.80;;
60318;SDS011;46163;52.306;5.634;2023-02-24T08:34:37;0.85;;;0.80;;
60318;SDS011;46163;52.306;5.634;2023-02-24T08:37:03;0.80;;;0.80;;
60318;SDS011;46163;52.306;5.634;2023-02-24T08:39:30;1.33;;;0.63;;
60318;SDS011;46163;52.306;5.634;2023-02-24T08:42:00;1.38;;;1.00;;
60318;SDS011;46163;52.306;5.634;2023-02-24T08:44:26;1.30;;;0.77;;
60318;SDS011;46163;52.306;5.634;2023-02-24T08:46:55;0.70;;;0.70;;
60318;SDS011;46163;52.306;5.634;2023-02-24T08:49:22;1.00;;;1.00;;
60318;SDS011;46163;52.306;5.634;2023-02-24T08:51:52;1.55;;;0.90;;
60318;SDS011;46163;52.306;5.634;2023-02-24T08:54:19;0.85;;;0.85;;
60318;SDS011;46163;52.306;5.634;2023-02-24T08:56:51;0.70;;;0.70;;
60318;SDS011;46163;52.306;5.634;2023-02-24T08:59:23;0.70;;;0.70;;
60318;SDS011;46163;52.306;5.634;2023-02-24T09:02:01;2.08;;;0.88;;
60318;SDS011;46163;52.306;5.634;2023-02-24T09:04:48;0.73;;;0.70;;
60318;SDS011;46163;52.306;5.634;2023-02-24T09:07:17;0.60;;;0.60;;
60318;SDS011;46163;52.306;5.634;2023-02-24T09:09:44;1.13;;;1.00;;
60318;SDS011;46163;52.306;5.634;2023-02-24T09:12:11;0.73;;;0.73;;
60318;SDS011;46163;52.306;5.634;2023-02-24T09:14:49;0.88;;;0.88;;
60318;SDS011;46163;52.306;5.634;2023-02-24T09:17:19;0.50;;;0.50;;
60318;SDS011;46163;52.306;5.634;2023-02-24T09:20:04;1.33;;;0.73;;
60318;SDS011;46163;52.306;5.634;2023-02-24T09:22:57;3.10;;;0.90;;
60318;SDS011;46163;52.306;5.634;2023-02-24T09:25:32;0.73;;;0.68;;
60318;SDS011;46163;52.306;5.634;2023-02-24T09:30:41;0.80;;;0.68;;
60318;SDS011;46163;52.306;5.634;2023-02-24T09:33:21;0.60;;;0.60;;
60318;SDS011;46163;52.306;5.634;2023-02-24T09:36:15;0.80;;;0.80;;
60318;SDS011;46163;52.306;5.634;2023-02-24T09:38:45;0.75;;;0.73;;
60318;SDS011;46163;52.306;5.634;2023-02-24T09:49:47;0.65;;;0.65;;
60318;SDS011;46163;52.306;5.634;2023-02-24T09:52:27;0.77;;;0.60;;
60318;SDS011;46163;52.306;5.634;2023-02-24T09:55:05;0.82;;;0.63;;
60318;SDS011;46163;52.306;5.634;2023-02-24T09:58:10;0.68;;;0.68;;
60318;SDS011;46163;52.306;5.634;2023-02-24T10:12:45;0.55;;;0.55;;
60318;SDS011;46163;52.306;5.634;2023-02-24T10:15:18;0.60;;;0.60;;
60318;SDS011;46163;52.306;5.634;2023-02-24T10:29:17;0.80;;;0.60;;
60318;SDS011;46163;52.306;5.634;2023-02-24T10:34:31;0.60;;;0.60;;
60318;SDS011;46163;52.306;5.634;2023-02-24T10:37:10;0.52;;;0.52;;
60318;SDS011;46163;52.306;5.634;2023-02-24T10:39:37;0.63;;;0.55;;
60318;SDS011;46163;52.306;5.634;2023-02-24T10:42:08;0.90;;;0.70;;
60318;SDS011;46163;52.306;5.634;2023-02-24T10:44:40;0.75;;;0.52;;
60318;SDS011;46163;52.306;5.634;2023-02-24T10:47:16;1.40;;;0.70;;
60318;SDS011;46163;52.306;5.634;2023-02-24T10:49:45;0.60;;;0.60;;
60318;SDS011;46163;52.306;5.634;2023-02-24T10:52:22;0.85;;;0.80;;
60318;SDS011;46163;52.306;5.634;2023-02-24T10:55:24;0.50;;;0.50;;
60318;SDS011;46163;52.306;5.634;2023-02-24T10:58:13;0.70;;;0.60;;
60318;SDS011;46163;52.306;5.634;2023-02-24T11:00:44;0.60;;;0.60;;
60318;SDS011;46163;52.306;5.634;2023-02-24T11:03:17;0.68;;;0.68;;
60318;SDS011;46163;52.306;5.634;2023-02-24T11:06:04;0.60;;;0.60;;
60318;SDS011;46163;52.306;5.634;2023-02-24T11:08:57;0.40;;;0.40;;
60318;SDS011;46163;52.306;5.634;2023-02-24T11:11:43;0.65;;;0.65;;
60318;SDS011;46163;52.306;5.634;2023-02-24T11:14:28;0.77;;;0.77;;
60318;SDS011;46163;52.306;5.634;2023-02-24T11:17:20;1.65;;;0.63;;
60318;SDS011;46163;52.306;5.634;2023-02-24T11:22:21;0.60;;;0.60;;
60318;SDS011;46163;52.306;5.634;2023-02-24T11:24:49;1.95;;;0.70;;
60318;SDS011;46163;52.306;5.634;2023-02-24T11:27:20;0.60;;;0.60;;
60318;SDS011;46163;52.306;5.634;2023-02-24T11:40:42;0.55;;;0.55;;
60318;SDS011;46163;52.306;5.634;2023-02-24T11:43:14;2.35;;;0.60;;
60318;SDS011;46163;52.306;5.634;2023-02-24T11:48:31;2.03;;;0.52;;
60318;SDS011;46163;52.306;5.634;2023-02-24T11:51:02;0.70;;;0.70;;
60318;SDS011;46163;52.306;5.634;2023-02-24T11:53:40;3.08;;;0.80;;
60318;SDS011;46163;52.306;5.634;2023-02-24T12:01:41;8.60;;;1.40;;
60318;SDS011;46163;52.306;5.634;2023-02-24T12:04:25;3.20;;;1.05;;
60318;SDS011;46163;52.306;5.634;2023-02-24T12:09:48;2.78;;;0.80;;
60318;SDS011;46163;52.306;5.634;2023-02-24T12:14:51;3.58;;;0.80;;
60318;SDS011;46163;52.306;5.634;2023-02-24T12:17:43;1.08;;;0.90;;
60318;SDS011;46163;52.306;5.634;2023-02-24T12:20:31;1.70;;;0.73;;
60318;SDS011;46163;52.306;5.634;2023-02-24T12:23:03;2.60;;;0.60;;
60318;SDS011;46163;52.306;5.634;2023-02-24T12:28:37;0.50;;;0.50;;
60318;SDS011;46163;52.306;5.634;2023-02-24T12:51:41;0.65;;;0.65;;
60318;SDS011;46163;52.306;5.634;2023-02-24T12:56:54;2.20;;;0.80;;
60318;SDS011;46163;52.306;5.634;2023-02-24T12:59:27;2.72;;;0.90;;
60318;SDS011;46163;52.306;5.634;2023-02-24T13:15:33;5.63;;;0.95;;
60318;SDS011;46163;52.306;5.634;2023-02-24T13:17:59;3.45;;;0.73;;
60318;SDS011;46163;52.306;5.634;2023-02-24T13:23:01;0.73;;;0.73;;
60318;SDS011;46163;52.306;5.634;2023-02-24T13:25:33;1.55;;;0.70;;
60318;SDS011;46163;52.306;5.634;2023-02-24T13:28:05;1.48;;;1.00;;
60318;SDS011;46163;52.306;5.634;2023-02-24T13:30:55;2.97;;;1.13;;
60318;SDS011;46163;52.306;5.634;2023-02-24T13:33:33;2.85;;;1.10;;
60318;SDS011;46163;52.306;5.634;2023-02-24T13:36:05;2.05;;;0.88;;
60318;SDS011;46163;52.306;5.634;2023-02-24T13:38:38;3.97;;;1.15;;
60318;SDS011;46163;52.306;5.634;2023-02-24T13:46:20;1.23;;;1.02;;
60318;SDS011;46163;52.306;5.634;2023-02-24T13:51:50;9.25;;;1.27;;
60318;SDS011;46163;52.306;5.634;2023-02-24T14:03:20;3.85;;;1.00;;
60318;SDS011;46163;52.306;5.634;2023-02-24T14:05:48;1.35;;;1.00;;
60318;SDS011;46163;52.306;5.634;2023-02-24T14:08:22;5.55;;;1.00;;
60318;SDS011;46163;52.306;5.634;2023-02-24T14:10:54;1.40;;;0.90;;
60318;SDS011;46163;52.306;5.634;2023-02-24T14:13:24;1.58;;;0.80;;
60318;SDS011;46163;52.306;5.634;2023-02-24T14:15:54;1.35;;;0.80;;
60318;SDS011;46163;52.306;5.634;2023-02-24T14:18:22;2.97;;;1.00;;
60318;SDS011;46163;52.306;5.634;2023-02-24T14:20:52;5.32;;;1.20;;
60318;SDS011;46163;52.306;5.634;2023-02-24T14:23:22;2.60;;;1.00;;
60318;SDS011;46163;52.306;5.634;2023-02-24T14:25:51;1.95;;;1.00;;
60318;SDS011;46163;52.306;5.634;2023-02-24T14:28:30;1.67;;;0.93;;
60318;SDS011;46163;52.306;5.634;2023-02-24T14:30:59;3.33;;;1.00;;
60318;SDS011;46163;52.306;5.634;2023-02-24T14:33:46;5.13;;;1.23;;
60318;SDS011;46163;52.306;5.634;2023-02-24T14:36:19;1.80;;;0.82;;
60318;SDS011;46163;52.306;5.634;2023-02-24T14:39:34;1.98;;;1.02;;
60318;SDS011;46163;52.306;5.634;2023-02-24T14:41:42;1.10;;;0.65;;
60318;SDS011;46163;52.306;5.634;2023-02-24T14:46:56;1.50;;;1.17;;
60318;SDS011;46163;52.306;5.634;2023-02-24T14:51:52;0.82;;;0.70;;
60318;SDS011;46163;52.306;5.634;2023-02-24T14:54:28;2.65;;;0.95;;
60318;SDS011;46163;52.306;5.634;2023-02-24T14:57:09;2.28;;;0.73;;
60318;SDS011;46163;52.306;5.634;2023-02-24T14:59:37;1.70;;;1.13;;
60318;SDS011;46163;52.306;5.634;2023-02-24T15:02:10;2.15;;;1.05;;
60318;SDS011;46163;52.306;5.634;2023-02-24T15:04:42;3.67;;;1.60;;
60318;SDS011;46163;52.306;5.634;2023-02-24T15:07:17;2.53;;;1.23;;
60318;SDS011;46163;52.306;5.634;2023-02-24T15:09:48;1.67;;;1.05;;
60318;SDS011;46163;52.306;5.634;2023-02-24T15:14:56;2.50;;;1.20;;
60318;SDS011;46163;52.306;5.634;2023-02-24T15:17:26;3.22;;;1.25;;
60318;SDS011;46163;52.306;5.634;2023-02-24T15:19:53;2.20;;;1.20;;
60318;SDS011;46163;52.306;5.634;2023-02-24T15:27:48;2.40;;;1.08;;
60318;SDS011;46163;52.306;5.634;2023-02-24T15:33:05;1.30;;;0.85;;
60318;SDS011;46163;52.306;5.634;2023-02-24T15:35:47;0.98;;;0.88;;
60318;SDS011;46163;52.306;5.634;2023-02-24T15:38:24;1.23;;;1.02;;
60318;SDS011;46163;52.306;5.634;2023-02-24T15:40:59;1.75;;;1.10;;
60318;SDS011;46163;52.306;5.634;2023-02-24T15:43:34;2.30;;;1.10;;
60318;SDS011;46163;52.306;5.634;2023-02-24T15:46:28;2.75;;;0.95;;
60318;SDS011;46163;52.306;5.634;2023-02-24T15:48:58;1.20;;;1.10;;
60318;SDS011;46163;52.306;5.634;2023-02-24T15:53:58;1.77;;;1.15;;
60318;SDS011;46163;52.306;5.634;2023-02-24T15:56:25;2.67;;;1.10;;
60318;SDS011;46163;52.306;5.634;2023-02-24T15:58:51;3.35;;;1.52;;
60318;SDS011;46163;52.306;5.634;2023-02-24T16:01:16;1.70;;;1.20;;
60318;SDS011;46163;52.306;5.634;2023-02-24T16:03:42;1.02;;;1.00;;
60318;SDS011;46163;52.306;5.634;2023-02-24T16:06:17;1.92;;;1.17;;
60318;SDS011;46163;52.306;5.634;2023-02-24T16:08:45;1.00;;;1.00;;
60318;SDS011;46163;52.306;5.634;2023-02-24T16:11:12;1.23;;;1.00;;
60318;SDS011;46163;52.306;5.634;2023-02-24T16:13:49;1.10;;;0.90;;
60318;SDS011;46163;52.306;5.634;2023-02-24T16:16:16;3.33;;;1.23;;
60318;SDS011;46163;52.306;5.634;2023-02-24T16:18:43;1.27;;;1.20;;
60318;SDS011;46163;52.306;5.634;2023-02-24T16:21:09;4.07;;;1.15;;
60318;SDS011;46163;52.306;5.634;2023-02-24T16:23:35;1.55;;;1.08;;
60318;SDS011;46163;52.306;5.634;2023-02-24T16:26:05;1.13;;;1.00;;
60318;SDS011;46163;52.306;5.634;2023-02-24T16:28:33;2.00;;;1.20;;
60318;SDS011;46163;52.306;5.634;2023-02-24T16:30:59;1.67;;;1.05;;
60318;SDS011;46163;52.306;5.634;2023-02-24T16:33:26;2.20;;;1.40;;
60318;SDS011;46163;52.306;5.634;2023-02-24T16:35:52;1.35;;;1.02;;
60318;SDS011;46163;52.306;5.634;2023-02-24T16:38:18;1.40;;;1.17;;
60318;SDS011;46163;52.306;5.634;2023-02-24T16:40:46;1.88;;;1.15;;
60318;SDS011;46163;52.306;5.634;2023-02-24T16:43:13;0.95;;;0.88;;
60318;SDS011;46163;52.306;5.634;2023-02-24T16:45:41;1.30;;;1.20;;
60318;SDS011;46163;52.306;5.634;2023-02-24T16:48:18;2.20;;;1.27;;
60318;SDS011;46163;52.306;5.634;2023-02-24T16:50:46;3.20;;;0.85;;
60318;SDS011;46163;52.306;5.634;2023-02-24T16:53:13;3.10;;;0.90;;
60318;SDS011;46163;52.306;5.634;2023-02-24T16:55:41;2.75;;;1.10;;
60318;SDS011;46163;52.306;5.634;2023-02-24T16:58:07;1.77;;;1.00;;
60318;SDS011;46163;52.306;5.634;2023-02-24T17:00:34;2.13;;;1.20;;
60318;SDS011;46163;52.306;5.634;2023-02-24T17:03:00;2.55;;;1.10;;
60318;SDS011;46163;52.306;5.634;2023-02-24T17:05:31;1.50;;;1.10;;
60318;SDS011;46163;52.306;5.634;2023-02-24T17:07:56;1.20;;;0.90;;
60318;SDS011;46163;52.306;5.634;2023-02-24T17:10:23;2.35;;;0.95;;
60318;SDS011;46163;52.306;5.634;2023-02-24T17:12:49;4.05;;;1.10;;
60318;SDS011;46163;52.306;5.634;2023-02-24T17:15:16;1.20;;;1.10;;
60318;SDS011;46163;52.306;5.634;2023-02-24T17:17:43;3.17;;;1.08;;
60318;SDS011;46163;52.306;5.634;2023-02-24T17:20:10;1.02;;;1.02;;
60318;SDS011;46163;52.306;5.634;2023-02-24T17:22:37;4.57;;;0.90;;
60318;SDS011;46163;52.306;5.634;2023-02-24T17:25:03;1.17;;;0.88;;
60318;SDS011;46163;52.306;5.634;2023-02-24T17:27:28;4.32;;;1.13;;
60318;SDS011;46163;52.306;5.634;2023-02-24T17:29:54;4.95;;;1.17;;
60318;SDS011;46163;52.306;5.634;2023-02-24T17:32:19;2.03;;;1.33;;
60318;SDS011;46163;52.306;5.634;2023-02-24T17:34:45;0.98;;;0.82;;
60318;SDS011;46163;52.306;5.634;2023-02-24T17:37:10;1.63;;;1.10;;
60318;SDS011;46163;52.306;5.634;2023-02-24T17:39:36;2.72;;;1.02;;
60318;SDS011;46163;52.306;5.634;2023-02-24T17:42:01;2.67;;;1.13;;
60318;SDS011;46163;52.306;5.634;2023-02-24T17:44:29;0.95;;;0.90;;
60318;SDS011;46163;52.306;5.634;2023-02-24T17:46:55;2.42;;;0.90;;
60318;SDS011;46163;52.306;5.634;2023-02-24T17:49:20;2.42;;;1.10;;
60318;SDS011;46163;52.306;5.634;2023-02-24T17:51:46;2.08;;;0.85;;
60318;SDS011;46163;52.306;5.634;2023-02-24T17:54:12;1.92;;;0.93;;
60318;SDS011;46163;52.306;5.634;2023-02-24T17:56:37;0.90;;;0.90;;
60318;SDS011;46163;52.306;5.634;2023-02-24T17:59:03;1.10;;;0.85;;
60318;SDS011;46163;52.306;5.634;2023-02-24T18:01:29;1.38;;;1.00;;
60318;SDS011;46163;52.306;5.634;2023-02-24T18:03:55;1.20;;;0.80;;
60318;SDS011;46163;52.306;5.634;2023-02-24T18:06:23;3.75;;;1.08;;
60318;SDS011;46163;52.306;5.634;2023-02-24T18:08:49;0.68;;;0.60;;
60318;SDS011;46163;52.306;5.634;2023-02-24T18:11:15;1.60;;;0.75;;
60318;SDS011;46163;52.306;5.634;2023-02-24T18:13:42;0.73;;;0.73;;
60318;SDS011;46163;52.306;5.634;2023-02-24T18:16:09;1.65;;;0.90;;
60318;SDS011;46163;52.306;5.634;2023-02-24T18:18:37;0.65;;;0.60;;
60318;SDS011;46163;52.306;5.634;2023-02-24T18:21:05;0.88;;;0.88;;